Time;durP1;ratioP1;P1;durP2;ratioP2;P2;SDS_P1;SDS_P2;PMS_P1;PMS_P2;Temp;Humidity;BMP_temperature;BMP_pressure;BME280_temperature;BME280_humidity;BME280_pressure;Samples;Min_cycle;Max_cycle;Signal;HPM_P1;HPM_P2
2022/07/31 00:00:13;;;;;;;;;;;;;;;12.98;69.12;99550.44;5154027;27;20438;-79
2022/07/31 00:02:40;;;;;;;;;;;;;;;12.91;69.76;99544.34;5135668;27;20390;-79
2022/07/31 00:05:07;;;;;;;;;;;;;;;12.87;70.04;99544.03;5135738;27;19969;-80
2022/07/31 00:07:34;;;;;;;;;;;;;;;12.88;70.19;99548.38;5154098;27;19926;-79
2022/07/31 00:10:02;;;;;;;;;;;;;;;12.86;70.26;99531.56;5154091;27;20038;-80
2022/07/31 00:12:29;;;;;;;;;;;;;;;12.80;70.44;99544.19;5154277;27;19927;-80
2022/07/31 00:14:56;;;;;;;;;;;;;;;12.75;70.84;99527.06;5154333;27;20017;-79
2022/07/31 00:17:22;;;;;;;;;;;;;;;12.75;70.84;99535.19;5154185;27;19933;-80
2022/07/31 00:19:49;;;;;;;;;;;;;;;12.73;70.78;99531.88;5153948;27;20023;-79
2022/07/31 00:22:16;;;;;;;;;;;;;;;12.80;70.66;99530.66;5153759;27;20569;-79
2022/07/31 00:24:43;;;;;;;;;;;;;;;12.85;70.32;99531.81;5153688;27;20457;-80
2022/07/31 00:27:10;;;;;;;;;;;;;;;12.79;70.36;99530.91;5153396;27;19980;-80
2022/07/31 00:29:37;;;;;;;;;;;;;;;12.79;70.34;99533.63;5135263;27;19927;-80
2022/07/31 00:32:04;;;;;;;;;;;;;;;12.79;70.27;99531.72;5153572;27;19970;-79
2022/07/31 00:34:35;;;;;;;;;;;;;;;12.75;70.57;99527.88;5135150;27;19934;-79
2022/07/31 00:37:02;;;;;;;;;;;;;;;12.71;70.63;99526.72;5153417;27;19934;-80
2022/07/31 00:39:31;;;;;;;;;;;;;;;12.69;70.67;99523.44;5137270;27;19935;-79
2022/07/31 00:42:00;;;;;;;;;;;;;;;12.61;70.79;99526.56;5131683;27;20357;-78
2022/07/31 00:44:27;;;;;;;;;;;;;;;12.55;71.45;99522.09;5114285;27;19934;-79
2022/07/31 00:46:57;;;;;;;;;;;;;;;12.57;71.48;99520.81;5114274;27;19970;-80
2022/07/31 00:49:27;;;;;;;;;;;;;;;12.54;71.43;99523.19;5132679;27;20018;-79
2022/07/31 00:52:03;;;;;;;;;;;;;;;12.48;71.79;99524.16;5132786;27;19927;-79
2022/07/31 00:54:30;;;;;;;;;;;;;;;12.44;71.89;99517.59;5114348;27;19927;-78
2022/07/31 00:56:57;;;;;;;;;;;;;;;12.43;72.06;99526.75;5132928;27;19927;-79
2022/07/31 00:59:26;;;;;;;;;;;;;;;12.40;72.38;99525.38;5132938;27;19931;-80
2022/07/31 01:01:53;;;;;;;;;;;;;;;12.40;72.53;99522.66;5133045;27;19931;-81
2022/07/31 01:04:21;;;;;;;;;;;;;;;12.42;72.24;99519.72;5132314;27;19944;-79
2022/07/31 01:06:48;;;;;;;;;;;;;;;12.41;72.23;99521.63;5130988;28;19927;-78
2022/07/31 01:09:15;;;;;;;;;;;;;;;12.42;72.30;99519.72;5128984;28;20025;-78
2022/07/31 01:11:51;;;;;;;;;;;;;;;12.39;72.50;99531.84;5111592;28;19931;-80
2022/07/31 01:14:19;;;;;;;;;;;;;;;12.40;72.53;99521.84;5114160;28;20012;-80
2022/07/31 01:16:46;;;;;;;;;;;;;;;12.36;72.52;99526.94;5097824;28;20004;-80
2022/07/31 01:19:17;;;;;;;;;;;;;;;12.34;72.99;99535.28;5097120;28;19931;-80
2022/07/31 01:22:00;;;;;;;;;;;;;;;12.29;73.07;99532.50;5080674;28;19958;-79
2022/07/31 01:24:27;;;;;;;;;;;;;;;12.25;73.06;99535.91;5114165;28;19958;-80
2022/07/31 01:27:25;;;;;;;;;;;;;;;12.25;72.88;99535.91;5118118;27;19954;-80
2022/07/31 01:29:53;;;;;;;;;;;;;;;12.18;73.46;99535.25;5101691;27;19932;-79
2022/07/31 01:32:23;;;;;;;;;;;;;;;12.10;73.44;99526.47;5101280;27;19972;-79
2022/07/31 01:35:00;;;;;;;;;;;;;;;12.07;73.69;99526.13;5085331;27;19962;-80
2022/07/31 01:37:47;;;;;;;;;;;;;;;12.03;73.66;99523.09;5118419;27;20317;-80
2022/07/31 01:40:25;;;;;;;;;;;;;;;12.04;73.60;99530.13;5117627;27;19927;-80
2022/07/31 01:42:54;;;;;;;;;;;;;;;12.04;73.65;99524.72;5118493;27;19939;-80
2022/07/31 01:45:21;;;;;;;;;;;;;;;12.06;73.80;99519.91;5100335;27;19927;-80
2022/07/31 01:47:49;;;;;;;;;;;;;;;12.09;73.67;99527.53;5101291;27;19931;-80
2022/07/31 01:50:18;;;;;;;;;;;;;;;12.10;73.92;99523.78;5101026;27;19966;-80
2022/07/31 01:53:05;;;;;;;;;;;;;;;12.07;73.97;99524.22;5103595;27;20411;-79
2022/07/31 01:55:34;;;;;;;;;;;;;;;12.09;74.28;99526.69;5134780;27;20030;-80
2022/07/31 01:58:21;;;;;;;;;;;;;;;12.11;74.20;99527.28;5117419;27;20420;-79
2022/07/31 02:00:48;;;;;;;;;;;;;;;12.17;73.88;99523.59;5100541;27;19981;-79
2022/07/31 02:03:16;;;;;;;;;;;;;;;12.14;74.03;99522.19;5100732;27;20025;-80
2022/07/31 02:06:03;;;;;;;;;;;;;;;12.10;74.40;99528.34;5117226;27;19931;-80
2022/07/31 02:08:30;;;;;;;;;;;;;;;12.10;74.40;99522.91;5100774;27;20342;-80
2022/07/31 02:10:58;;;;;;;;;;;;;;;12.11;74.45;99528.09;5117518;27;19935;-80
2022/07/31 02:13:25;;;;;;;;;;;;;;;12.12;74.53;99531.63;5100572;27;19973;-81
2022/07/31 02:15:52;;;;;;;;;;;;;;;12.11;74.59;99532.69;5117291;27;19932;-80
2022/07/31 02:18:21;;;;;;;;;;;;;;;12.08;74.65;99527.78;5117020;27;20035;-79
2022/07/31 02:21:05;;;;;;;;;;;;;;;12.11;74.61;99525.41;5100130;27;20297;-79
2022/07/31 02:23:37;;;;;;;;;;;;;;;12.17;74.62;99529.00;5135581;27;20517;-81
2022/07/31 02:26:05;;;;;;;;;;;;;;;12.23;74.46;99516.41;5116799;27;19931;-79
2022/07/31 02:28:33;;;;;;;;;;;;;;;12.29;74.05;99520.84;5117253;27;19986;-80
2022/07/31 02:31:03;;;;;;;;;;;;;;;12.33;73.87;99513.88;5100651;27;19980;-80
2022/07/31 02:33:30;;;;;;;;;;;;;;;12.37;73.92;99517.75;5117186;27;20393;-81
2022/07/31 02:35:58;;;;;;;;;;;;;;;12.38;73.72;99513.97;5135586;27;19934;-79
2022/07/31 02:38:26;;;;;;;;;;;;;;;12.41;73.82;99518.91;5098681;27;20010;-80
2022/07/31 02:40:58;;;;;;;;;;;;;;;12.49;73.63;99520.41;5116758;27;19934;-80
2022/07/31 02:43:39;;;;;;;;;;;;;;;12.57;73.40;99518.09;5132739;27;19927;-80
2022/07/31 02:46:18;;;;;;;;;;;;;;;12.64;73.27;99522.53;5135158;27;20005;-80
2022/07/31 02:48:45;;;;;;;;;;;;;;;12.72;73.35;99519.44;5116750;27;19933;-80
2022/07/31 02:51:13;;;;;;;;;;;;;;;12.77;72.84;99517.59;5099379;27;20415;-80
2022/07/31 02:53:41;;;;;;;;;;;;;;;12.87;72.84;99522.38;5116566;27;19927;-80
2022/07/31 02:56:08;;;;;;;;;;;;;;;12.98;72.54;99510.63;5134429;27;20041;-81
2022/07/31 02:58:40;;;;;;;;;;;;;;;13.10;72.32;99521.38;5100001;27;19934;-79
2022/07/31 03:01:14;;;;;;;;;;;;;;;13.26;71.88;99525.13;5116132;27;20394;-81
2022/07/31 03:03:41;;;;;;;;;;;;;;;13.36;71.65;99519.88;5116454;27;20061;-81
2022/07/31 03:06:09;;;;;;;;;;;;;;;13.48;71.42;99527.91;5115751;27;19959;-80
2022/07/31 03:08:37;;;;;;;;;;;;;;;13.56;70.99;99530.16;5116117;27;19966;-79
2022/07/31 03:11:04;;;;;;;;;;;;;;;13.66;70.82;99529.47;5134589;27;19928;-81
2022/07/31 03:13:34;;;;;;;;;;;;;;;13.75;70.67;99532.56;5134336;27;19931;-80
2022/07/31 03:16:01;;;;;;;;;;;;;;;13.84;70.59;99521.03;5099273;27;20025;-80
2022/07/31 03:18:28;;;;;;;;;;;;;;;13.90;70.53;99535.50;5082294;27;20393;-80
2022/07/31 03:20:55;;;;;;;;;;;;;;;13.96;70.67;99526.31;5116288;27;20056;-80
2022/07/31 03:23:23;;;;;;;;;;;;;;;14.01;70.45;99534.53;5115646;27;19927;-80
2022/07/31 03:26:03;;;;;;;;;;;;;;;14.03;70.41;99531.56;5100776;27;19934;-80
2022/07/31 03:28:30;;;;;;;;;;;;;;;14.05;70.25;99527.53;5115716;27;19927;-81
2022/07/31 03:30:57;;;;;;;;;;;;;;;14.12;70.23;99524.59;5115774;27;20405;-80
2022/07/31 03:33:27;;;;;;;;;;;;;;;14.24;69.74;99530.69;5115751;27;19927;-81
2022/07/31 03:35:57;;;;;;;;;;;;;;;14.28;69.75;99539.13;5115699;27;19935;-80
2022/07/31 03:38:25;;;;;;;;;;;;;;;14.32;69.68;99532.94;5133591;27;20397;-80
2022/07/31 03:41:13;;;;;;;;;;;;;;;14.46;69.29;99537.97;5115275;27;19950;-80
2022/07/31 03:43:40;;;;;;;;;;;;;;;14.56;69.10;99531.84;5099111;27;19934;-79
2022/07/31 03:46:16;;;;;;;;;;;;;;;14.67;68.87;99536.28;5115246;27;20443;-80
2022/07/31 03:48:42;;;;;;;;;;;;;;;14.77;68.89;99538.28;5114904;27;20132;-81
2022/07/31 03:51:09;;;;;;;;;;;;;;;14.90;68.40;99537.84;5115627;27;19927;-79
2022/07/31 03:53:38;;;;;;;;;;;;;;;15.05;68.15;99545.28;5115301;27;20030;-80
2022/07/31 03:56:05;;;;;;;;;;;;;;;15.14;67.80;99533.69;5098406;27;19928;-80
2022/07/31 03:58:32;;;;;;;;;;;;;;;15.30;67.61;99548.19;5098647;27;20124;-81
2022/07/31 04:01:02;;;;;;;;;;;;;;;15.45;67.18;99552.09;5116005;27;19931;-80
2022/07/31 04:03:35;;;;;;;;;;;;;;;15.57;66.85;99558.13;5099365;27;20404;-80
2022/07/31 04:06:22;;;;;;;;;;;;;;;15.68;66.82;99554.38;5111571;27;19980;-80
2022/07/31 04:08:49;;;;;;;;;;;;;;;15.76;66.90;99553.09;5114968;27;19927;-80
2022/07/31 04:11:16;;;;;;;;;;;;;;;15.85;66.89;99559.66;5114717;27;20460;-81
2022/07/31 04:13:43;;;;;;;;;;;;;;;15.96;66.86;99552.34;5114858;27;19935;-80
2022/07/31 04:16:10;;;;;;;;;;;;;;;16.09;66.91;99556.47;5114665;27;19934;-80
2022/07/31 04:18:37;;;;;;;;;;;;;;;16.24;67.39;99553.81;5081031;27;20411;-80
2022/07/31 04:21:04;;;;;;;;;;;;;;;16.33;67.08;99549.47;5097975;27;19984;-80
2022/07/31 04:23:32;;;;;;;;;;;;;;;16.41;67.00;99556.31;5114656;27;19927;-79
2022/07/31 04:26:20;;;;;;;;;;;;;;;16.48;67.17;99556.84;5100614;27;19927;-81
2022/07/31 04:29:00;;;;;;;;;;;;;;;16.59;67.13;99553.06;5099901;27;19982;-80
2022/07/31 04:31:27;;;;;;;;;;;;;;;16.68;66.89;99559.63;5114261;27;19934;-79
2022/07/31 04:33:54;;;;;;;;;;;;;;;16.80;66.69;99558.56;5114416;27;19934;-80
2022/07/31 04:36:22;;;;;;;;;;;;;;;16.92;66.87;99547.38;5114269;27;20468;-79
2022/07/31 04:38:58;;;;;;;;;;;;;;;17.09;66.60;99554.19;5114657;27;19927;-80
2022/07/31 04:41:26;;;;;;;;;;;;;;;17.20;66.59;99552.25;5114060;27;19927;-81
2022/07/31 04:43:53;;;;;;;;;;;;;;;17.30;66.52;99552.25;5114319;27;20042;-80
2022/07/31 04:46:20;;;;;;;;;;;;;;;17.44;66.07;99543.47;5114479;27;19927;-80
2022/07/31 04:48:47;;;;;;;;;;;;;;;17.52;65.64;99537.44;5114438;27;20123;-81
2022/07/31 04:51:16;;;;;;;;;;;;;;;17.62;65.08;99547.53;5097141;27;20018;-80
2022/07/31 04:53:44;;;;;;;;;;;;;;;17.73;64.92;99544.50;5114439;27;20363;-80
2022/07/31 04:58:58;;;;;;;;;;;;;;;18.02;64.07;99532.91;5114539;28;19934;-79
2022/07/31 05:01:25;;;;;;;;;;;;;;;18.15;63.51;99535.06;5131924;27;19932;-79
2022/07/31 05:03:52;;;;;;;;;;;;;;;18.29;62.95;99540.72;5113890;28;20026;-81
2022/07/31 05:06:19;;;;;;;;;;;;;;;18.40;62.18;99536.00;5113836;28;20045;-82
2022/07/31 05:08:46;;;;;;;;;;;;;;;18.48;61.61;99526.38;5113664;28;19949;-80
2022/07/31 05:11:22;;;;;;;;;;;;;;;18.63;61.08;99529.84;5113774;28;20372;-80
2022/07/31 05:13:53;;;;;;;;;;;;;;;18.75;60.70;99532.22;5132478;28;20307;-81
2022/07/31 05:16:20;;;;;;;;;;;;;;;18.86;60.00;99532.13;5132182;28;19977;-81
2022/07/31 05:18:47;;;;;;;;;;;;;;;18.93;59.60;99527.97;5132681;28;19928;-80
2022/07/31 05:21:33;;;;;;;;;;;;;;;18.98;57.15;99525.19;5132502;28;19937;-80
2022/07/31 05:24:36;;;;;;;;;;;;;;;19.03;56.50;99519.66;5102373;28;20023;-81
2022/07/31 05:27:05;;;;;;;;;;;;;;;19.13;56.49;99520.69;5113806;28;20400;-81
2022/07/31 05:29:32;;;;;;;;;;;;;;;19.20;55.03;99521.97;5113407;28;19973;-81
2022/07/31 05:32:00;;;;;;;;;;;;;;;19.29;53.52;99513.94;5113709;28;19984;-81
2022/07/31 05:34:29;;;;;;;;;;;;;;;19.40;53.08;99510.00;5113634;28;20401;-80
2022/07/31 05:36:59;;;;;;;;;;;;;;;19.51;52.02;99510.69;5113802;28;20018;-81
2022/07/31 05:39:29;;;;;;;;;;;;;;;19.61;50.02;99512.50;5113660;28;19933;-80
2022/07/31 05:42:15;;;;;;;;;;;;;;;19.74;50.68;99514.56;5116791;28;19942;-80
2022/07/31 05:44:58;;;;;;;;;;;;;;;19.82;50.62;99504.88;5073832;28;19971;-80
2022/07/31 05:47:25;;;;;;;;;;;;;;;19.87;50.15;99502.88;5097072;28;19927;-81
2022/07/31 05:50:07;;;;;;;;;;;;;;;19.98;47.45;99500.00;5131964;28;20392;-80
2022/07/31 05:52:34;;;;;;;;;;;;;;;19.99;46.84;99507.13;5097062;28;19939;-80
2022/07/31 05:55:24;;;;;;;;;;;;;;;20.00;46.40;99508.75;5068137;28;19933;-80
2022/07/31 05:58:23;;;;;;;;;;;;;;;20.00;45.55;99511.47;5024776;28;20040;-81
2022/07/31 06:00:50;;;;;;;;;;;;;;;20.01;44.96;99510.41;5027576;28;19928;-80
2022/07/31 06:03:23;;;;;;;;;;;;;;;20.08;45.11;99508.91;5010247;28;19933;-81
2022/07/31 06:06:01;;;;;;;;;;;;;;;20.26;45.05;99509.22;5009810;28;20554;-80
2022/07/31 06:08:30;;;;;;;;;;;;;;;20.35;44.05;99507.44;4661235;28;10000404;-80
2022/07/31 06:10:57;;;;;;;;;;;;;;;20.38;43.49;99504.09;5022361;28;19929;-81
2022/07/31 06:13:25;;;;;;;;;;;;;;;20.37;43.36;99504.41;5011329;28;19936;-80
2022/07/31 06:15:53;;;;;;;;;;;;;;;20.41;43.17;99505.41;5010605;28;19932;-80
2022/07/31 06:18:19;;;;;;;;;;;;;;;20.48;42.95;99503.13;5027798;28;19983;-79
2022/07/31 06:20:46;;;;;;;;;;;;;;;20.49;42.97;99513.78;5027005;28;20043;-79
2022/07/31 06:23:14;;;;;;;;;;;;;;;20.63;43.14;99513.06;5027759;28;19929;-79
2022/07/31 06:26:04;;;;;;;;;;;;;;;20.80;41.86;99512.53;5011092;28;19937;-80
2022/07/31 06:28:33;;;;;;;;;;;;;;;20.92;41.54;99512.88;5027482;28;19933;-80
2022/07/31 06:31:20;;;;;;;;;;;;;;;20.96;40.12;99511.97;5026516;28;19936;-80
2022/07/31 06:33:49;;;;;;;;;;;;;;;21.03;40.08;99519.00;5082563;27;19982;-80
2022/07/31 06:36:20;;;;;;;;;;;;;;;21.12;39.45;99515.25;5131539;27;19931;-82
2022/07/31 06:38:55;;;;;;;;;;;;;;;21.25;38.53;99519.13;5110115;27;19927;-81
2022/07/31 06:41:43;;;;;;;;;;;;;;;21.43;38.48;99506.47;5119072;27;19931;-81
2022/07/31 06:44:29;;;;;;;;;;;;;;;21.53;37.97;99511.75;5137194;27;20413;-82
2022/07/31 06:47:15;;;;;;;;;;;;;;;21.50;36.93;99512.38;5141640;27;20697;-82
2022/07/31 06:50:00;;;;;;;;;;;;;;;21.67;35.64;99505.44;5133004;27;19927;-81
2022/07/31 06:52:36;;;;;;;;;;;;;;;21.83;34.79;99506.78;5124522;27;19931;-80
2022/07/31 06:55:05;;;;;;;;;;;;;;;21.99;34.79;99497.06;5133299;27;19933;-78
2022/07/31 06:57:33;;;;;;;;;;;;;;;22.24;35.00;99494.91;5133250;27;20321;-80
2022/07/31 07:00:04;;;;;;;;;;;;;;;22.23;34.72;99499.59;5145936;27;19931;-79
2022/07/31 07:02:46;;;;;;;;;;;;;;;22.32;34.71;99496.91;5134610;27;19949;-79
2022/07/31 07:05:14;;;;;;;;;;;;;;;22.34;34.33;99502.13;5124530;27;19933;-78
2022/07/31 07:07:41;;;;;;;;;;;;;;;22.43;33.34;99500.22;5137165;27;20030;-79
2022/07/31 07:10:08;;;;;;;;;;;;;;;22.38;32.48;99503.91;5153132;27;20050;-77
2022/07/31 07:13:08;;;;;;;;;;;;;;;22.21;32.06;99501.03;5134553;27;19934;-79
2022/07/31 07:15:39;;;;;;;;;;;;;;;22.34;32.75;99504.88;5116154;27;19927;-78
2022/07/31 07:18:38;;;;;;;;;;;;;;;22.62;32.26;99494.56;5129851;27;20019;-80
2022/07/31 07:21:05;;;;;;;;;;;;;;;22.76;32.87;99495.28;5130120;27;19988;-77
2022/07/31 07:23:33;;;;;;;;;;;;;;;22.73;33.15;99501.44;5125084;27;19927;-80
2022/07/31 07:26:16;;;;;;;;;;;;;;;23.00;33.65;99496.94;5127630;27;20042;-81
2022/07/31 07:28:45;;;;;;;;;;;;;;;22.95;33.18;99497.84;5143225;27;20381;-79
2022/07/31 07:31:12;;;;;;;;;;;;;;;22.89;33.01;99493.63;5115525;27;20352;-80
2022/07/31 07:33:44;;;;;;;;;;;;;;;22.81;33.02;99489.66;5122367;27;19927;-81
2022/07/31 07:36:18;;;;;;;;;;;;;;;22.50;33.30;99487.66;5124390;27;19927;-79
2022/07/31 07:39:02;;;;;;;;;;;;;;;22.43;33.05;99487.31;5115463;27;20420;-81
2022/07/31 07:41:31;;;;;;;;;;;;;;;22.47;33.41;99491.06;5110048;27;19928;-80
2022/07/31 07:43:59;;;;;;;;;;;;;;;22.54;33.84;99482.38;5125424;27;20037;-80
2022/07/31 07:46:27;;;;;;;;;;;;;;;22.84;34.00;99478.06;5114758;27;19959;-79
2022/07/31 07:49:02;;;;;;;;;;;;;;;23.18;34.22;99479.38;5115141;27;19927;-81
2022/07/31 07:51:56;;;;;;;;;;;;;;;23.40;34.14;99480.47;5114568;27;19938;-78
2022/07/31 07:54:48;;;;;;;;;;;;;;;23.07;32.88;99478.06;5061380;28;19984;-80
2022/07/31 07:57:24;;;;;;;;;;;;;;;23.07;33.17;99478.84;5058269;28;20035;-81
2022/07/31 08:00:10;;;;;;;;;;;;;;;23.20;33.62;99470.81;5051747;28;19928;-80
2022/07/31 08:02:46;;;;;;;;;;;;;;;23.62;33.35;99477.59;5067579;28;19982;-80
2022/07/31 08:05:37;;;;;;;;;;;;;;;23.68;32.52;99473.56;5051601;28;19929;-79
2022/07/31 08:08:05;;;;;;;;;;;;;;;22.88;32.54;99469.97;5051298;28;20488;-79
2022/07/31 08:11:02;;;;;;;;;;;;;;;22.04;32.78;99474.97;5067372;28;19967;-80
2022/07/31 08:13:54;;;;;;;;;;;;;;;21.96;33.94;99478.47;5036591;28;19929;-80
2022/07/31 08:16:44;;;;;;;;;;;;;;;22.00;34.43;99479.47;5056081;28;19951;-82
2022/07/31 08:19:11;;;;;;;;;;;;;;;21.67;33.96;99484.28;5039577;28;19928;-81
2022/07/31 08:21:38;;;;;;;;;;;;;;;21.59;34.17;99480.31;5060846;28;19928;-82
2022/07/31 08:24:06;;;;;;;;;;;;;;;21.70;33.85;99478.19;5033260;28;20023;-82
2022/07/31 08:29:19;;;;;;;;;;;;;;;21.32;34.67;99469.31;5047532;28;20383;-81
2022/07/31 08:32:01;;;;;;;;;;;;;;;21.31;34.58;99467.69;5085650;27;19927;-82
2022/07/31 08:34:49;;;;;;;;;;;;;;;22.42;32.44;99469.19;5115800;28;19935;-81
2022/07/31 08:37:18;;;;;;;;;;;;;;;23.44;31.49;99459.41;5131633;27;20454;-81
2022/07/31 08:40:10;;;;;;;;;;;;;;;24.16;29.83;99475.47;5113219;27;19927;-81
2022/07/31 08:42:38;;;;;;;;;;;;;;;24.49;29.11;99475.00;5096181;27;20436;-80
2022/07/31 08:45:06;;;;;;;;;;;;;;;24.71;28.61;99462.16;5115589;27;19927;-79
2022/07/31 08:47:40;;;;;;;;;;;;;;;24.88;28.05;99462.09;5099182;27;19927;-82
2022/07/31 08:50:14;;;;;;;;;;;;;;;25.28;28.22;99456.31;5114261;27;20426;-80
2022/07/31 08:52:42;;;;;;;;;;;;;;;25.92;27.83;99456.13;5131462;27;19934;-80
2022/07/31 08:55:45;;;;;;;;;;;;;;;26.29;27.94;99452.78;5088052;28;19950;-81
2022/07/31 08:58:23;;;;;;;;;;;;;;;26.88;27.36;99444.25;5072461;28;20437;-81
2022/07/31 09:00:53;;;;;;;;;;;;;;;27.37;27.06;99446.28;5050901;28;19935;-82
2022/07/31 09:03:21;;;;;;;;;;;;;;;27.43;26.33;99442.94;5080037;28;19934;-84
2022/07/31 09:05:55;;;;;;;;;;;;;;;27.02;26.54;99446.72;5068658;28;20063;-81
2022/07/31 09:08:23;;;;;;;;;;;;;;;26.99;26.49;99448.19;5083248;28;19928;-83
2022/07/31 09:11:00;;;;;;;;;;;;;;;26.21;26.69;99448.16;5086264;28;20050;-82
2022/07/31 09:13:29;;;;;;;;;;;;;;;25.67;27.84;99452.38;5028868;28;20036;-80
2022/07/31 09:15:58;;;;;;;;;;;;;;;25.92;27.73;99445.06;5087530;28;20353;-81
2022/07/31 09:18:27;;;;;;;;;;;;;;;26.78;26.93;99447.44;5087306;28;19967;-82
2022/07/31 09:21:03;;;;;;;;;;;;;;;25.63;27.95;99445.91;5068024;28;19928;-80
2022/07/31 09:23:33;;;;;;;;;;;;;;;24.87;28.64;99455.78;5064516;28;19929;-82
2022/07/31 09:26:06;;;;;;;;;;;;;;;25.80;27.91;99453.28;5084612;28;19985;-79
2022/07/31 09:28:41;;;;;;;;;;;;;;;26.31;26.76;99451.31;5087122;28;19928;-80
2022/07/31 09:31:08;;;;;;;;;;;;;;;27.21;25.76;99449.75;5112568;28;20027;-80
2022/07/31 09:34:26;;;;;;;;;;;;;;;28.40;24.52;99443.13;5100118;28;19927;-80
2022/07/31 09:37:12;;;;;;;;;;;;;;;28.85;23.59;99442.00;5121365;27;19927;-79
2022/07/31 09:40:17;;;;;;;;;;;;;;;29.17;23.48;99447.63;5107944;28;19947;-80
2022/07/31 09:43:13;;;;;;;;;;;;;;;29.69;23.24;99445.69;5134788;27;19931;-80
2022/07/31 09:45:40;;;;;;;;;;;;;;;30.09;22.82;99448.19;5074964;27;20023;-80
2022/07/31 09:48:14;;;;;;;;;;;;;;;30.53;22.50;99433.97;5141308;27;19970;-79
2022/07/31 09:50:55;;;;;;;;;;;;;;;30.63;21.75;99455.66;5134034;27;19928;-80
2022/07/31 09:53:23;;;;;;;;;;;;;;;30.29;21.79;99449.03;5115992;27;19935;-81
2022/07/31 09:55:58;;;;;;;;;;;;;;;30.41;22.35;99442.50;5115245;27;19935;-80
2022/07/31 09:58:26;;;;;;;;;;;;;;;30.86;21.84;99449.34;5111503;27;19977;-82
2022/07/31 10:00:53;;;;;;;;;;;;;;;30.35;21.45;99449.53;5120853;27;20413;-81
2022/07/31 10:03:21;;;;;;;;;;;;;;;30.36;21.31;99457.53;5083862;27;20347;-82
2022/07/31 10:05:51;;;;;;;;;;;;;;;30.58;21.21;99449.59;5128904;27;19927;-82
2022/07/31 10:08:18;;;;;;;;;;;;;;;30.62;21.60;99454.06;5107862;27;19928;-83
2022/07/31 10:11:12;;;;;;;;;;;;;;;29.49;21.95;99447.59;5123502;27;19928;-83
2022/07/31 10:14:01;;;;;;;;;;;;;;;29.38;22.05;99448.13;5113000;27;20319;-84
2022/07/31 10:16:28;;;;;;;;;;;;;;;29.64;22.12;99440.38;5126007;27;19927;-82
2022/07/31 10:19:31;;;;;;;;;;;;;;;29.95;21.95;99437.53;5093510;27;19928;-80
2022/07/31 10:22:19;;;;;;;;;;;;;;;30.78;22.30;99428.09;5118421;27;19938;-80
2022/07/31 10:24:48;;;;;;;;;;;;;;;31.48;21.60;99438.09;5103975;27;20002;-79
2022/07/31 10:27:18;;;;;;;;;;;;;;;31.86;20.31;99431.47;5131972;27;20397;-80
2022/07/31 10:29:51;;;;;;;;;;;;;;;32.50;20.17;99425.94;5115519;27;19928;-80
2022/07/31 10:32:18;;;;;;;;;;;;;;;32.57;20.33;99425.22;5115362;27;19954;-80
2022/07/31 10:35:23;;;;;;;;;;;;;;;32.76;19.93;99430.59;5133640;27;19935;-80
2022/07/31 10:38:23;;;;;;;;;;;;;;;31.98;19.22;99433.25;5117860;27;19958;-79
2022/07/31 10:40:51;;;;;;;;;;;;;;;30.74;20.67;99432.78;5138594;27;19941;-79
2022/07/31 10:43:23;;;;;;;;;;;;;;;30.59;21.05;99432.53;5102885;27;19970;-79
2022/07/31 10:46:06;;;;;;;;;;;;;;;31.07;20.36;99429.44;5110357;27;20420;-81
2022/07/31 10:48:51;;;;;;;;;;;;;;;31.24;20.43;99442.03;5116271;27;20363;-80
2022/07/31 10:51:47;;;;;;;;;;;;;;;32.10;19.41;99435.00;5144964;27;19927;-80
2022/07/31 10:54:46;;;;;;;;;;;;;;;32.45;19.39;99419.88;5130058;27;19935;-80
2022/07/31 10:57:36;;;;;;;;;;;;;;;31.42;20.70;99415.28;5115515;27;19931;-80
2022/07/31 11:00:44;;;;;;;;;;;;;;;30.94;20.69;99409.28;5122501;27;19932;-80
2022/07/31 11:03:45;;;;;;;;;;;;;;;30.56;21.18;99411.00;5035022;28;19928;-80
2022/07/31 11:06:40;;;;;;;;;;;;;;;28.69;23.05;99427.28;5043900;28;19935;-78
2022/07/31 11:09:28;;;;;;;;;;;;;;;27.47;23.76;99418.09;5041411;28;20043;-78
2022/07/31 11:12:29;;;;;;;;;;;;;;;26.86;24.98;99413.31;5049501;28;19929;-79
2022/07/31 11:15:22;;;;;;;;;;;;;;;28.98;22.50;99409.38;5037540;28;20443;-79
2022/07/31 11:18:19;;;;;;;;;;;;;;;29.91;22.16;99405.25;5029577;28;19968;-79
2022/07/31 11:21:04;;;;;;;;;;;;;;;29.22;22.21;99405.66;5024400;28;19928;-81
2022/07/31 11:23:54;;;;;;;;;;;;;;;27.80;24.30;99408.81;5028581;28;19929;-80
2022/07/31 11:26:32;;;;;;;;;;;;;;;27.54;24.37;99401.72;5014272;28;19929;-80
2022/07/31 11:29:08;;;;;;;;;;;;;;;27.30;24.83;99404.50;5035061;28;19936;-79
2022/07/31 11:32:00;;;;;;;;;;;;;;;27.06;25.01;99399.72;5028011;28;19937;-81
2022/07/31 11:34:27;;;;;;;;;;;;;;;26.45;25.94;99395.66;5011761;28;20164;-81
2022/07/31 11:36:56;;;;;;;;;;;;;;;25.72;26.55;99404.38;5027155;28;19937;-81
2022/07/31 11:39:26;;;;;;;;;;;;;;;26.82;25.33;99406.06;5018317;28;19929;-80
2022/07/31 11:42:03;;;;;;;;;;;;;;;25.94;25.91;99412.38;5095644;28;19935;-79
2022/07/31 11:44:30;;;;;;;;;;;;;;;25.25;26.51;99404.50;5092276;28;19928;-81
2022/07/31 11:46:57;;;;;;;;;;;;;;;26.38;25.65;99401.75;5110039;28;19928;-80
2022/07/31 11:49:24;;;;;;;;;;;;;;;28.39;23.88;99408.19;5096031;28;19953;-79
2022/07/31 11:52:11;;;;;;;;;;;;;;;29.30;23.15;99413.00;5095474;28;19974;-80
2022/07/31 11:55:08;;;;;;;;;;;;;;;28.26;24.02;99406.66;5120174;27;19927;-80
2022/07/31 11:57:36;;;;;;;;;;;;;;;27.77;24.34;99403.97;5110347;27;20447;-79
2022/07/31 12:00:21;;;;;;;;;;;;;;;27.58;24.99;99404.59;5107207;27;19934;-81
2022/07/31 12:02:55;;;;;;;;;;;;;;;26.60;25.75;99402.53;5125087;27;19928;-80
2022/07/31 12:05:22;;;;;;;;;;;;;;;25.77;26.49;99420.75;5111453;27;19973;-81
2022/07/31 12:08:04;;;;;;;;;;;;;;;25.78;26.37;99411.34;5116271;27;20007;-82
2022/07/31 12:10:31;;;;;;;;;;;;;;;27.29;25.31;99400.91;5123523;27;19950;-82
2022/07/31 12:12:58;;;;;;;;;;;;;;;28.98;23.46;99400.25;5100801;28;19927;-81
2022/07/31 12:15:25;;;;;;;;;;;;;;;28.38;23.71;99397.44;5112166;28;20312;-79
2022/07/31 12:17:59;;;;;;;;;;;;;;;27.95;24.16;99402.56;5114863;27;20354;-80
2022/07/31 12:20:25;;;;;;;;;;;;;;;27.38;24.99;99400.81;5124114;27;19928;-81
2022/07/31 12:23:03;;;;;;;;;;;;;;;27.26;25.15;99395.28;5118046;27;19927;-82
2022/07/31 12:25:49;;;;;;;;;;;;;;;29.13;23.11;99391.94;5115844;27;19966;-80
2022/07/31 12:28:16;;;;;;;;;;;;;;;31.01;22.01;99395.47;5098062;27;20429;-80
2022/07/31 12:31:09;;;;;;;;;;;;;;;32.95;20.41;99401.63;5111045;27;19959;-80
2022/07/31 12:33:42;;;;;;;;;;;;;;;33.30;19.92;99394.75;5117869;27;19974;-81
2022/07/31 12:36:13;;;;;;;;;;;;;;;32.17;20.96;99391.22;5113024;27;19961;-81
2022/07/31 12:38:42;;;;;;;;;;;;;;;30.99;21.64;99386.72;5115440;27;19927;-79
2022/07/31 12:41:14;;;;;;;;;;;;;;;29.79;22.51;99381.97;5138625;27;19952;-80
2022/07/31 12:43:42;;;;;;;;;;;;;;;28.92;23.64;99385.84;5122158;27;19927;-80
2022/07/31 12:46:18;;;;;;;;;;;;;;;28.34;24.04;99388.22;5116443;27;20026;-79
2022/07/31 12:48:45;;;;;;;;;;;;;;;28.12;24.68;99378.50;5134479;27;19962;-78
2022/07/31 12:51:12;;;;;;;;;;;;;;;28.44;24.21;99382.16;5138715;27;19931;-80
2022/07/31 12:53:45;;;;;;;;;;;;;;;29.65;22.84;99389.16;5141114;27;20376;-81
2022/07/31 12:56:12;;;;;;;;;;;;;;;29.49;22.87;99383.63;5136288;27;20389;-80
2022/07/31 12:58:45;;;;;;;;;;;;;;;28.49;23.83;99382.75;5141206;27;19927;-81
2022/07/31 13:01:27;;;;;;;;;;;;;;;27.82;24.46;99378.81;5120011;27;20388;-81
2022/07/31 13:03:57;;;;;;;;;;;;;;;27.85;24.07;99376.16;5141158;27;19974;-80
2022/07/31 13:06:26;;;;;;;;;;;;;;;28.27;23.69;99366.63;5138604;27;20046;-81
2022/07/31 13:08:54;;;;;;;;;;;;;;;28.07;24.72;99369.25;5134302;27;20395;-80
2022/07/31 13:11:21;;;;;;;;;;;;;;;27.76;24.41;99367.13;5121965;27;19934;-79
2022/07/31 13:13:48;;;;;;;;;;;;;;;27.54;25.19;99359.31;5139775;27;19931;-81
2022/07/31 13:16:15;;;;;;;;;;;;;;;27.26;25.50;99362.03;5133828;27;20361;-80
2022/07/31 13:18:42;;;;;;;;;;;;;;;27.04;26.21;99355.75;5131565;27;19948;-82
2022/07/31 13:21:09;;;;;;;;;;;;;;;26.72;26.07;99361.06;5141122;27;19927;-82
2022/07/31 13:23:36;;;;;;;;;;;;;;;26.68;25.92;99353.78;5140664;27;19931;-82
2022/07/31 13:26:03;;;;;;;;;;;;;;;27.01;25.93;99353.69;5144993;27;19976;-81